createdAt,value
2023-04-04T00:00:55.683Z,99.90
2023-04-04T00:03:22.514Z,99.90
2023-04-04T00:05:53.436Z,99.90
2023-04-04T00:08:20.064Z,99.90
2023-04-04T00:10:49.269Z,99.90
2023-04-04T00:13:15.954Z,99.90
2023-04-04T00:15:45.079Z,99.90
2023-04-04T00:18:11.805Z,99.90
2023-04-04T00:20:38.830Z,99.90
2023-04-04T00:23:11.121Z,99.90
2023-04-04T00:25:37.856Z,99.90
2023-04-04T00:28:04.599Z,99.90
2023-04-04T00:30:34.195Z,99.90
2023-04-04T00:33:02.058Z,99.90
2023-04-04T00:35:29.039Z,99.90
2023-04-04T00:38:00.097Z,99.90
2023-04-04T00:40:26.833Z,99.90
2023-04-04T00:42:53.586Z,99.90
2023-04-04T00:45:20.283Z,99.90
2023-04-04T00:47:50.362Z,99.90
2023-04-04T00:50:21.974Z,99.90
2023-04-04T00:52:51.792Z,99.90
2023-04-04T00:55:19.135Z,99.90
2023-04-04T00:57:51.347Z,99.90
2023-04-04T01:00:18.049Z,99.90
2023-04-04T01:02:44.781Z,99.90
2023-04-04T01:05:12.545Z,99.90
2023-04-04T01:07:44.047Z,99.90
2023-04-04T01:10:10.963Z,99.90
2023-04-04T01:12:40.589Z,99.90
2023-04-04T01:15:10.197Z,99.90
2023-04-04T01:17:37.535Z,99.90
2023-04-04T01:20:10.709Z,99.90
2023-04-04T01:22:37.805Z,99.90
2023-04-04T01:25:05.811Z,99.90
2023-04-04T01:27:32.468Z,99.90
2023-04-04T01:29:59.254Z,99.90
2023-04-04T01:32:28.435Z,99.90
2023-04-04T01:35:01.148Z,99.90
2023-04-04T01:37:32.633Z,99.90
2023-04-04T01:40:06.615Z,99.90
2023-04-04T01:42:33.323Z,99.90
2023-04-04T01:44:59.953Z,99.90
2023-04-04T01:47:26.483Z,99.90
2023-04-04T01:49:54.024Z,99.90
2023-04-04T01:52:20.709Z,99.90
2023-04-04T01:54:47.291Z,99.90
2023-04-04T01:57:13.996Z,99.90
2023-04-04T01:59:40.632Z,99.90
2023-04-04T02:02:07.450Z,99.90
2023-04-04T02:04:34.317Z,99.90
2023-04-04T02:07:00.901Z,99.90
2023-04-04T02:09:27.459Z,99.90
2023-04-04T02:11:54.624Z,99.90
2023-04-04T02:14:21.564Z,99.90
2023-04-04T02:16:48.063Z,99.90
2023-04-04T02:19:14.581Z,99.90
2023-04-04T02:21:41.090Z,99.90
2023-04-04T02:24:07.755Z,99.90
2023-04-04T02:26:34.304Z,99.90
2023-04-04T02:29:01.003Z,99.90
2023-04-04T02:31:27.709Z,99.90
2023-04-04T02:33:54.366Z,99.90
2023-04-04T02:36:21.192Z,99.90
2023-04-04T02:38:47.773Z,99.90
2023-04-04T02:41:14.355Z,99.90
2023-04-04T02:43:41.053Z,99.90
2023-04-04T02:46:20.583Z,99.90
2023-04-04T02:49:01.374Z,99.90
2023-04-04T02:51:27.913Z,99.90
2023-04-04T02:53:54.421Z,99.90
2023-04-04T02:56:21.212Z,99.90
2023-04-04T02:58:48.375Z,99.90
2023-04-04T03:01:14.993Z,99.90
2023-04-04T03:03:41.664Z,99.90
2023-04-04T03:06:08.683Z,99.90
2023-04-04T03:08:35.884Z,99.90
2023-04-04T03:11:02.724Z,99.90
2023-04-04T03:13:29.332Z,99.90
2023-04-04T03:16:03.418Z,99.90
2023-04-04T03:18:30.061Z,99.90
2023-04-04T03:20:56.555Z,99.90
2023-04-04T03:23:23.069Z,99.90
2023-04-04T03:25:49.657Z,99.90
2023-04-04T03:28:16.175Z,99.90
2023-04-04T03:30:43.258Z,99.90
2023-04-04T03:33:10.095Z,99.90
2023-04-04T03:35:40.046Z,99.90
2023-04-04T03:38:06.941Z,99.90
2023-04-04T03:50:26.324Z,99.90
2023-04-04T03:52:52.934Z,99.90
2023-04-04T03:55:19.571Z,99.90
2023-04-04T03:57:46.361Z,99.90
2023-04-04T04:00:13.038Z,99.90
2023-04-04T04:02:40.149Z,99.90
2023-04-04T04:05:07.081Z,99.90
2023-04-04T04:07:33.701Z,99.90
2023-04-04T04:10:00.496Z,99.90
2023-04-04T04:12:27.110Z,99.90
2023-04-04T04:14:53.647Z,99.90
2023-04-04T04:17:20.179Z,99.90
2023-04-04T04:19:46.747Z,99.90
2023-04-04T04:22:13.313Z,99.90
2023-04-04T04:24:39.882Z,99.90
2023-04-04T04:27:06.888Z,99.90
2023-04-04T04:29:33.500Z,99.90
2023-04-04T04:32:01.003Z,99.90
2023-04-04T04:34:27.686Z,99.90
2023-04-04T04:41:48.209Z,99.90
2023-04-04T04:44:14.714Z,99.90
2023-04-04T04:46:41.453Z,99.90
2023-04-04T04:49:08.208Z,99.90
2023-04-04T04:51:34.768Z,99.90
2023-04-04T04:54:01.614Z,99.90
2023-04-04T04:56:28.217Z,99.90
2023-04-04T04:58:54.756Z,99.90
2023-04-04T05:01:21.356Z,99.90
2023-04-04T05:03:47.991Z,99.90
2023-04-04T05:08:41.646Z,99.90
2023-04-04T05:11:08.159Z,99.90
2023-04-04T05:13:34.790Z,99.90
2023-04-04T05:16:01.315Z,99.90
2023-04-04T05:18:28.370Z,99.90
2023-04-04T05:20:55.268Z,99.90
2023-04-04T05:23:22.179Z,99.90
2023-04-04T05:25:53.270Z,99.90
2023-04-04T05:28:20.770Z,99.90
2023-04-04T05:30:47.368Z,99.90
2023-04-04T05:33:13.901Z,99.90
2023-04-04T05:35:41.281Z,99.90
2023-04-04T05:38:07.987Z,99.90
2023-04-04T05:40:34.516Z,99.90
2023-04-04T05:43:04.151Z,99.90
2023-04-04T05:45:31.483Z,99.90
2023-04-04T05:47:58.263Z,99.90
2023-04-04T05:50:24.857Z,99.90
2023-04-04T05:52:53.422Z,99.90
2023-04-04T05:55:19.927Z,99.90
2023-04-04T05:57:52.816Z,99.90
2023-04-04T06:00:19.701Z,99.90
2023-04-04T06:02:46.816Z,99.90
2023-04-04T06:05:13.451Z,99.90
2023-04-04T06:07:40.219Z,99.90
2023-04-04T06:10:07.686Z,99.90
2023-04-04T06:12:40.328Z,99.90
2023-04-04T06:15:07.508Z,99.90
2023-04-04T06:17:34.218Z,99.90
2023-04-04T06:20:00.738Z,99.90
2023-04-04T06:22:27.269Z,99.90
2023-04-04T06:24:53.780Z,99.90
2023-04-04T06:27:20.763Z,99.90
2023-04-04T06:29:47.781Z,99.90
2023-04-04T06:32:14.399Z,99.90
2023-04-04T06:34:40.923Z,99.90
2023-04-04T06:37:07.596Z,99.90
2023-04-04T06:39:34.356Z,99.90
2023-04-04T06:42:01.345Z,99.90
2023-04-04T06:44:27.861Z,99.90
2023-04-04T06:46:54.521Z,99.90
2023-04-04T06:49:21.116Z,99.90
2023-04-04T06:51:50.630Z,99.90
2023-04-04T06:54:17.260Z,99.90
2023-04-04T06:56:43.909Z,99.90
2023-04-04T06:59:12.499Z,99.90
2023-04-04T07:01:39.136Z,99.90
2023-04-04T07:04:05.816Z,99.90
2023-04-04T07:06:32.439Z,99.90
2023-04-04T07:08:59.050Z,99.90
2023-04-04T07:11:25.724Z,99.90
2023-04-04T07:13:52.536Z,99.90
2023-04-04T07:16:19.079Z,99.90
2023-04-04T07:18:45.647Z,99.90
2023-04-04T07:31:01.828Z,99.90
2023-04-04T07:33:28.446Z,99.90
2023-04-04T07:35:55.179Z,99.90
2023-04-04T07:38:21.959Z,99.90
2023-04-04T07:40:49.149Z,99.90
2023-04-04T07:43:15.654Z,99.90
2023-04-04T07:45:42.228Z,99.90
2023-04-04T07:48:09.288Z,99.90
2023-04-04T07:50:35.810Z,99.90
2023-04-04T07:53:02.495Z,99.90
2023-04-04T07:55:29.131Z,99.90
2023-04-04T08:07:52.488Z,99.90
2023-04-04T08:10:21.533Z,99.90
2023-04-04T08:12:48.983Z,99.90
2023-04-04T08:15:15.933Z,99.90
2023-04-04T08:17:48.538Z,99.90
2023-04-04T08:20:15.543Z,99.90
2023-04-04T08:22:45.650Z,99.90
2023-04-04T08:25:12.718Z,99.90
2023-04-04T08:27:43.889Z,99.90
2023-04-04T08:30:10.993Z,99.90
2023-04-04T08:32:37.596Z,99.90
2023-04-04T08:35:05.090Z,99.90
2023-04-04T08:37:32.171Z,99.90
2023-04-04T08:39:59.273Z,99.90
2023-04-04T08:42:28.401Z,99.90
2023-04-04T08:44:55.965Z,99.90
2023-04-04T08:47:24.420Z,99.90
2023-04-04T08:49:52.555Z,99.90
2023-04-04T08:54:47.272Z,99.90
2023-04-04T08:57:16.970Z,99.90
2023-04-04T08:59:43.723Z,99.90
2023-04-04T09:02:10.776Z,99.90
2023-04-04T09:04:37.700Z,99.90
2023-04-04T09:07:05.302Z,99.90
2023-04-04T09:09:34.995Z,99.90
2023-04-04T09:12:02.147Z,99.90
2023-04-04T09:14:30.355Z,99.90
2023-04-04T09:16:57.430Z,99.90
2023-04-04T09:19:26.283Z,99.90
2023-04-04T09:21:53.255Z,99.90
2023-04-04T09:24:19.923Z,99.90
2023-04-04T09:34:08.416Z,99.90
2023-04-04T09:51:20.499Z,99.90
2023-04-04T09:53:51.329Z,99.90
2023-04-04T09:56:19.025Z,99.90
2023-04-04T09:58:56.637Z,99.90
2023-04-04T10:03:58.088Z,99.90
2023-04-04T10:06:25.509Z,99.90
2023-04-04T10:08:52.306Z,99.90
2023-04-04T10:11:29.801Z,99.90
2023-04-04T10:13:57.405Z,99.90
2023-04-04T10:16:24.703Z,99.90
2023-04-04T10:18:52.486Z,99.90
2023-04-04T10:21:19.898Z,99.90
2023-04-04T10:23:46.851Z,99.90
2023-04-04T10:31:17.416Z,99.90
2023-04-04T10:33:50.448Z,99.90
2023-04-04T10:36:25.344Z,99.90
2023-04-04T10:38:58.548Z,99.90
2023-04-04T10:46:23.134Z,99.90
2023-04-04T10:48:50.179Z,99.90
2023-04-04T10:51:17.490Z,99.90
2023-04-04T10:53:44.817Z,99.90
2023-04-04T10:56:11.556Z,95.50
2023-04-04T10:58:41.725Z,98.90
2023-04-04T11:01:08.682Z,96.80
2023-04-04T11:03:54.892Z,99.90
2023-04-04T11:06:24.778Z,96.20
2023-04-04T11:08:56.117Z,96.10
2023-04-04T11:11:25.276Z,96.30
2023-04-04T11:14:04.004Z,98.20
2023-04-04T11:16:44.348Z,95.80
2023-04-04T11:19:15.027Z,96.00
2023-04-04T11:21:46.226Z,96.20
2023-04-04T11:24:13.474Z,96.00
2023-04-04T11:26:42.789Z,95.70
2023-04-04T11:29:09.711Z,95.40
2023-04-04T11:31:40.648Z,96.90
2023-04-04T11:34:08.206Z,96.60
2023-04-04T11:36:38.487Z,95.80
2023-04-04T11:39:06.412Z,96.80
2023-04-04T11:41:53.332Z,97.30
2023-04-04T11:44:22.567Z,95.70
2023-04-04T11:46:50.978Z,99.20
2023-04-04T11:49:18.550Z,99.90
2023-04-04T11:51:45.775Z,99.90
2023-04-04T11:54:18.402Z,99.90
2023-04-04T11:56:45.484Z,99.40
2023-04-04T11:59:12.897Z,99.20
2023-04-04T12:01:40.513Z,96.90
2023-04-04T12:04:07.204Z,98.70
2023-04-04T12:06:35.578Z,97.20
2023-04-04T12:09:04.960Z,96.10
2023-04-04T12:11:33.832Z,96.60
2023-04-04T12:14:01.188Z,96.40
2023-04-04T12:16:28.445Z,97.00
2023-04-04T12:18:57.249Z,97.20
2023-04-04T12:21:24.270Z,99.90
2023-04-04T12:23:51.000Z,99.90
2023-04-04T12:26:19.065Z,99.90
2023-04-04T12:28:49.200Z,99.70
2023-04-04T12:31:16.570Z,97.60
2023-04-04T12:33:43.181Z,99.90
2023-04-04T12:36:11.528Z,98.40
2023-04-04T12:38:58.139Z,96.50
2023-04-04T12:41:24.989Z,95.20
2023-04-04T12:43:51.901Z,98.00
2023-04-04T12:46:18.555Z,97.70
2023-04-04T12:48:45.512Z,98.50
2023-04-04T12:51:12.458Z,97.80
2023-04-04T12:53:53.622Z,98.30
2023-04-04T12:56:23.069Z,96.50
2023-04-04T12:58:50.131Z,93.10
2023-04-04T13:01:19.869Z,94.30
2023-04-04T13:03:47.159Z,93.00
2023-04-04T13:06:15.681Z,98.20
2023-04-04T13:08:49.282Z,97.00
2023-04-04T13:11:15.939Z,93.70
2023-04-04T13:13:44.188Z,93.00
2023-04-04T13:16:12.043Z,92.40
2023-04-04T13:18:43.408Z,95.00
2023-04-04T13:21:11.441Z,94.80
2023-04-04T13:23:39.637Z,94.30
2023-04-04T13:26:07.938Z,94.60
2023-04-04T13:28:35.709Z,91.90
2023-04-04T13:31:03.285Z,97.20
2023-04-04T13:33:29.845Z,99.40
2023-04-04T13:35:57.720Z,99.90
2023-04-04T13:38:25.949Z,99.90
2023-04-04T13:40:54.162Z,99.90
2023-04-04T13:43:20.879Z,98.20
2023-04-04T13:45:47.803Z,96.40
2023-04-04T13:48:14.474Z,97.90
2023-04-04T13:50:44.300Z,98.20
2023-04-04T13:53:11.274Z,96.20
2023-04-04T13:55:41.439Z,97.40
2023-04-04T13:58:10.970Z,95.30
2023-04-04T14:00:39.253Z,97.00
2023-04-04T14:03:06.829Z,98.90
2023-04-04T14:05:34.003Z,90.60
2023-04-04T14:08:00.686Z,83.70
2023-04-04T14:10:27.512Z,78.10
2023-04-04T14:12:55.824Z,83.90
2023-04-04T14:15:22.776Z,78.90
2023-04-04T14:17:49.495Z,87.60
2023-04-04T14:20:16.150Z,95.20
2023-04-04T14:22:42.696Z,90.70
2023-04-04T14:25:09.406Z,83.20
2023-04-04T14:27:36.112Z,95.80
2023-04-04T14:30:02.965Z,96.50
2023-04-04T14:37:23.996Z,99.10
2023-04-04T14:39:50.640Z,93.60
2023-04-04T14:42:17.225Z,94.70
2023-04-04T14:44:43.823Z,93.70
2023-04-04T14:49:37.685Z,89.70
2023-04-04T14:52:04.254Z,80.50
2023-04-04T14:54:30.916Z,92.20
2023-04-04T14:56:58.025Z,89.70
2023-04-04T14:59:24.615Z,87.90
2023-04-04T15:01:51.464Z,92.40
2023-04-04T15:04:17.998Z,79.90
2023-04-04T15:06:44.584Z,88.20
2023-04-04T15:09:11.719Z,86.50
2023-04-04T15:11:38.291Z,85.80
2023-04-04T15:14:05.011Z,71.20
2023-04-04T15:16:33.121Z,69.60
2023-04-04T15:19:00.573Z,67.60
2023-04-04T15:21:27.637Z,66.90
2023-04-04T15:23:54.406Z,68.70
2023-04-04T15:26:21.977Z,70.30
2023-04-04T15:28:49.388Z,75.40
2023-04-04T15:31:16.051Z,79.60
2023-04-04T15:33:42.839Z,83.00
2023-04-04T15:36:09.626Z,84.30
2023-04-04T15:38:36.142Z,88.00
2023-04-04T15:41:04.747Z,89.70
2023-04-04T15:43:31.899Z,86.50
2023-04-04T15:45:58.451Z,75.40
2023-04-04T15:48:25.074Z,87.90
2023-04-04T15:50:51.640Z,86.50
2023-04-04T15:53:18.194Z,86.40
2023-04-04T15:55:44.847Z,81.20
2023-04-04T15:58:13.832Z,78.70
2023-04-04T16:00:50.456Z,94.00
2023-04-04T16:03:21.027Z,79.20
2023-04-04T16:05:47.940Z,90.30
2023-04-04T16:08:14.881Z,89.50
2023-04-04T16:10:41.831Z,89.10
2023-04-04T16:13:08.627Z,93.20
2023-04-04T16:15:42.805Z,92.60
2023-04-04T16:18:09.545Z,93.30
2023-04-04T16:20:36.608Z,90.00
2023-04-04T16:23:03.229Z,71.70
2023-04-04T16:25:29.827Z,75.80
2023-04-04T16:27:56.511Z,82.60
2023-04-04T16:30:23.068Z,87.00
2023-04-04T16:32:49.796Z,88.10
2023-04-04T16:35:16.453Z,91.80
2023-04-04T16:37:43.019Z,92.80
2023-04-04T16:40:09.877Z,96.40
2023-04-04T16:42:36.497Z,94.50
2023-04-04T16:45:08.230Z,95.60
2023-04-04T16:47:36.251Z,96.40
2023-04-04T16:50:04.137Z,95.80
2023-04-04T16:52:31.132Z,96.40
2023-04-04T16:54:57.679Z,95.20
2023-04-04T16:57:24.660Z,97.80
2023-04-04T16:59:54.986Z,97.30
2023-04-04T17:02:21.622Z,98.90
2023-04-04T17:07:57.946Z,99.90
2023-04-04T17:15:36.768Z,99.90
2023-04-04T17:18:04.664Z,99.90
2023-04-04T17:23:01.153Z,97.80
2023-04-04T17:27:55.981Z,91.20
2023-04-04T17:30:22.611Z,92.40
2023-04-04T17:32:51.231Z,92.20
2023-04-04T17:42:39.101Z,93.90
2023-04-04T17:45:06.855Z,93.90
2023-04-04T17:47:33.494Z,94.50
2023-04-04T17:50:00.144Z,95.20
2023-04-04T17:52:27.080Z,95.30
2023-04-04T17:54:53.778Z,96.50
2023-04-04T17:57:20.569Z,96.60
2023-04-04T17:59:50.186Z,97.30
2023-04-04T18:02:18.547Z,97.60
2023-04-04T18:07:14.359Z,98.20
2023-04-04T18:09:41.804Z,99.50
2023-04-04T18:12:09.513Z,99.90
2023-04-04T18:14:36.111Z,99.90
2023-04-04T18:17:02.930Z,99.90
2023-04-04T18:19:30.091Z,99.90
2023-04-04T18:22:00.063Z,99.90
2023-04-04T18:26:54.793Z,99.90
2023-04-04T18:29:21.538Z,99.90
2023-04-04T18:31:48.251Z,99.90
2023-04-04T18:34:16.570Z,99.90
2023-04-04T18:36:43.411Z,99.90
2023-04-04T18:39:10.133Z,99.90
2023-04-04T18:41:37.234Z,99.90
2023-04-04T18:44:03.806Z,99.90
2023-04-04T18:46:30.459Z,99.90
2023-04-04T18:48:57.254Z,99.90
2023-04-04T18:51:23.985Z,99.90
2023-04-04T18:53:50.958Z,99.90
2023-04-04T18:56:17.603Z,99.90
2023-04-04T18:58:44.236Z,99.90
2023-04-04T19:03:42.007Z,99.90
2023-04-04T19:06:10.739Z,99.90
2023-04-04T19:08:41.020Z,99.90
2023-04-04T19:13:35.741Z,99.90
2023-04-04T19:16:02.440Z,99.90
2023-04-04T19:20:56.262Z,99.90
2023-04-04T19:23:22.846Z,99.90
2023-04-04T19:25:50.853Z,99.90
2023-04-04T19:28:17.494Z,99.90
2023-04-04T19:30:44.229Z,99.90
2023-04-04T19:33:11.317Z,99.90
2023-04-04T19:40:46.260Z,99.90
2023-04-04T19:43:14.231Z,99.90
2023-04-04T19:45:53.250Z,99.90
2023-04-04T19:48:38.845Z,99.90
2023-04-04T19:51:32.033Z,99.90
2023-04-04T19:53:59.371Z,99.90
2023-04-04T19:56:27.422Z,99.90
2023-04-04T19:58:55.918Z,99.90
2023-04-04T20:01:29.070Z,99.90
2023-04-04T20:04:15.996Z,99.90
2023-04-04T20:06:42.921Z,99.90
2023-04-04T20:09:25.344Z,99.90
2023-04-04T20:11:52.058Z,99.90
2023-04-04T20:14:20.120Z,99.90
2023-04-04T20:16:46.799Z,99.90
2023-04-04T20:19:13.930Z,99.90
2023-04-04T20:21:40.766Z,99.90
2023-04-04T20:24:08.560Z,99.90
2023-04-04T20:29:06.514Z,99.90
2023-04-04T20:31:40.871Z,99.90
2023-04-04T20:34:09.223Z,99.90
2023-04-04T20:36:39.250Z,99.90
2023-04-04T20:39:07.759Z,99.90
2023-04-04T20:41:34.321Z,99.90
2023-04-04T20:44:00.997Z,99.90
2023-04-04T20:46:27.630Z,99.90
2023-04-04T20:48:56.464Z,99.90
2023-04-04T20:51:23.868Z,99.90
2023-04-04T20:56:36.990Z,99.90
2023-04-04T20:59:06.223Z,99.90
2023-04-04T21:01:32.862Z,99.90
2023-04-04T21:03:59.681Z,99.90
2023-04-04T21:06:28.802Z,99.90
2023-04-04T21:08:55.498Z,99.90
2023-04-04T21:11:24.134Z,99.90
2023-04-04T21:13:50.832Z,99.90
2023-04-04T21:16:19.037Z,99.90
2023-04-04T21:18:45.765Z,99.90
2023-04-04T21:21:13.803Z,99.90
2023-04-04T21:23:43.154Z,99.90
2023-04-04T21:26:10.932Z,99.90
2023-04-04T21:28:38.866Z,99.90
2023-04-04T21:31:13.660Z,99.90
2023-04-04T21:33:47.218Z,99.90
2023-04-04T21:36:19.805Z,99.90
2023-04-04T21:38:46.385Z,99.90
2023-04-04T21:41:21.594Z,99.90
2023-04-04T21:43:48.188Z,99.90
2023-04-04T21:46:14.819Z,99.90
2023-04-04T21:48:41.760Z,99.90
2023-04-04T21:51:08.348Z,99.90
2023-04-04T21:56:02.130Z,99.90
2023-04-04T21:58:29.067Z,99.90
2023-04-04T22:00:55.627Z,99.90
2023-04-04T22:03:22.249Z,99.90
2023-04-04T22:05:48.912Z,99.90
2023-04-04T22:08:15.569Z,99.90
2023-04-04T22:10:52.218Z,99.90
2023-04-04T22:13:19.500Z,99.90
2023-04-04T22:15:47.125Z,99.90
2023-04-04T22:18:16.754Z,99.90
2023-04-04T22:20:44.266Z,99.90
2023-04-04T22:23:11.866Z,99.90
2023-04-04T22:25:38.447Z,99.90
2023-04-04T22:28:08.326Z,99.90
2023-04-04T22:30:35.897Z,99.90
2023-04-04T22:33:05.245Z,99.90
2023-04-04T22:35:32.640Z,99.90
2023-04-04T22:38:03.092Z,99.90
2023-04-04T22:40:33.662Z,99.90
2023-04-04T22:43:01.437Z,99.90
2023-04-04T22:45:29.554Z,99.90
2023-04-04T22:47:57.898Z,99.90
2023-04-04T22:50:24.910Z,99.90
2023-04-04T22:52:54.591Z,99.90
2023-04-04T22:55:22.649Z,99.90
2023-04-04T22:57:49.509Z,99.90
2023-04-04T23:00:16.147Z,99.90
2023-04-04T23:02:43.559Z,99.90
2023-04-04T23:05:10.767Z,99.90
2023-04-04T23:07:37.875Z,99.90
2023-04-04T23:10:05.400Z,99.90
2023-04-04T23:12:32.038Z,99.90
2023-04-04T23:15:01.341Z,99.90
2023-04-04T23:17:28.128Z,99.90
2023-04-04T23:19:54.949Z,99.90
2023-04-04T23:22:21.736Z,99.90
2023-04-04T23:24:48.600Z,99.90
2023-04-04T23:27:15.977Z,99.90
2023-04-04T23:29:42.920Z,99.90
2023-04-04T23:32:09.902Z,99.90
2023-04-04T23:34:36.457Z,99.90
2023-04-04T23:37:03.438Z,99.90
2023-04-04T23:39:30.020Z,99.90
2023-04-04T23:41:58.260Z,99.90
2023-04-04T23:44:24.899Z,99.90
2023-04-04T23:46:51.582Z,99.90
2023-04-04T23:49:19.865Z,99.90
2023-04-04T23:51:47.276Z,99.90
2023-04-04T23:54:13.997Z,99.90
2023-04-04T23:56:40.725Z,99.90
2023-04-04T23:59:07.414Z,99.90
